Time;durP1;ratioP1;P1;durP2;ratioP2;P2;SDS_P1;SDS_P2;PMS_P1;PMS_P2;Temp;Humidity;BMP_temperature;BMP_pressure;BME280_temperature;BME280_humidity;BME280_pressure;Samples;Min_cycle;Max_cycle;Signal;HPM_P1;HPM_P2
2023/05/06 00:01:24;;;;;;;0.30;0.30;;;;;;;;;;7401543;19;20133;-86
2023/05/06 00:03:50;;;;;;;0.85;0.85;;;;;;;;;;7418169;19;20440;-87
2023/05/06 00:06:17;;;;;;;0.30;0.30;;;;;;;;;;7423137;19;20172;-88
2023/05/06 00:08:44;;;;;;;0.38;0.38;;;;;;;;;;7422489;19;20138;-88
2023/05/06 00:11:15;;;;;;;0.40;0.40;;;;;;;;;;7407763;19;20132;-85
2023/05/06 00:13:42;;;;;;;0.57;0.57;;;;;;;;;;7404143;19;20141;-86
2023/05/06 00:16:08;;;;;;;0.40;0.40;;;;;;;;;;7403803;19;20169;-86
2023/05/06 00:18:35;;;;;;;0.82;0.82;;;;;;;;;;7404569;19;20140;-86
2023/05/06 00:21:03;;;;;;;0.60;0.60;;;;;;;;;;7404551;19;20216;-86
2023/05/06 00:23:29;;;;;;;0.50;0.50;;;;;;;;;;7405480;19;20160;-86
2023/05/06 00:25:56;;;;;;;0.45;0.45;;;;;;;;;;7404757;19;20164;-86
2023/05/06 00:28:23;;;;;;;0.40;0.40;;;;;;;;;;7403788;19;20589;-86
2023/05/06 00:30:50;;;;;;;0.30;0.30;;;;;;;;;;7405490;19;20156;-86
2023/05/06 00:33:16;;;;;;;0.35;0.35;;;;;;;;;;7401858;19;20148;-86
2023/05/06 00:35:43;;;;;;;0.55;0.55;;;;;;;;;;7402723;19;20168;-86
2023/05/06 00:38:11;;;;;;;0.30;0.30;;;;;;;;;;7401519;19;20164;-86
2023/05/06 00:40:38;;;;;;;0.43;0.43;;;;;;;;;;7399554;19;20145;-85
2023/05/06 00:43:05;;;;;;;0.38;0.38;;;;;;;;;;7397683;19;20140;-86
2023/05/06 00:45:32;;;;;;;0.40;0.40;;;;;;;;;;7393965;19;20161;-85
2023/05/06 00:47:59;;;;;;;5.40;1.48;;;;;;;;;;7398486;19;20164;-85
2023/05/06 00:50:30;;;;;;;0.40;0.40;;;;;;;;;;7400628;19;20137;-85
2023/05/06 00:52:57;;;;;;;0.33;0.33;;;;;;;;;;7400115;19;20164;-86
2023/05/06 00:55:25;;;;;;;0.50;0.50;;;;;;;;;;7403345;19;20216;-86
2023/05/06 00:57:52;;;;;;;0.40;0.40;;;;;;;;;;7401615;19;20129;-86
2023/05/06 01:00:19;;;;;;;0.40;0.40;;;;;;;;;;7403822;19;20173;-86
2023/05/06 01:02:46;;;;;;;0.75;0.75;;;;;;;;;;7403284;19;20140;-86
2023/05/06 01:05:15;;;;;;;0.40;0.40;;;;;;;;;;7402091;19;20149;-86
2023/05/06 01:07:57;;;;;;;0.43;0.43;;;;;;;;;;7410169;19;20652;-87
2023/05/06 01:10:33;;;;;;;0.82;0.82;;;;;;;;;;7426053;19;20132;-87
2023/05/06 01:13:18;;;;;;;1.10;0.98;;;;;;;;;;7405780;19;20167;-86
2023/05/06 01:15:46;;;;;;;0.60;0.60;;;;;;;;;;7404264;19;20985;-87
2023/05/06 01:18:16;;;;;;;0.50;0.50;;;;;;;;;;7406084;19;20145;-86
2023/05/06 01:20:48;;;;;;;0.40;0.40;;;;;;;;;;7404490;19;20137;-86
2023/05/06 01:23:15;;;;;;;0.30;0.30;;;;;;;;;;7403230;19;20711;-86
2023/05/06 01:25:42;;;;;;;0.40;0.40;;;;;;;;;;7401849;19;20153;-86
2023/05/06 01:28:10;;;;;;;0.65;0.65;;;;;;;;;;7404619;19;20145;-86
2023/05/06 01:31:04;;;;;;;0.40;0.40;;;;;;;;;;7403895;19;20125;-86
2023/05/06 01:33:41;;;;;;;0.68;0.68;;;;;;;;;;7405764;19;20558;-85
2023/05/06 01:36:13;;;;;;;0.40;0.40;;;;;;;;;;7402289;19;20484;-87
2023/05/06 01:38:56;;;;;;;0.40;0.40;;;;;;;;;;7403080;19;20144;-86
2023/05/06 01:41:24;;;;;;;0.30;0.30;;;;;;;;;;7398521;19;20133;-85
2023/05/06 01:43:51;;;;;;;0.40;0.40;;;;;;;;;;7403260;19;20144;-87
2023/05/06 01:46:19;;;;;;;0.40;0.40;;;;;;;;;;7400298;19;20188;-86
2023/05/06 01:48:49;;;;;;;0.50;0.50;;;;;;;;;;7404640;19;20148;-86
2023/05/06 01:51:15;;;;;;;0.43;0.43;;;;;;;;;;7404272;19;20152;-86
2023/05/06 01:53:42;;;;;;;0.30;0.30;;;;;;;;;;7404244;19;20176;-86
2023/05/06 01:56:08;;;;;;;0.40;0.40;;;;;;;;;;7403592;19;20200;-86
2023/05/06 01:58:36;;;;;;;0.40;0.40;;;;;;;;;;7406776;19;20156;-86
2023/05/06 02:01:02;;;;;;;0.30;0.30;;;;;;;;;;7406218;19;20152;-86
2023/05/06 02:03:29;;;;;;;0.30;0.30;;;;;;;;;;7405449;19;20169;-86
2023/05/06 02:05:56;;;;;;;0.38;0.38;;;;;;;;;;7400088;19;20180;-85
2023/05/06 02:08:23;;;;;;;0.95;0.82;;;;;;;;;;7406328;19;20182;-86
2023/05/06 02:10:49;;;;;;;0.30;0.30;;;;;;;;;;7406191;19;20140;-85
2023/05/06 02:13:18;;;;;;;0.40;0.40;;;;;;;;;;7409035;19;20136;-86
2023/05/06 02:15:45;;;;;;;0.57;0.57;;;;;;;;;;7411269;19;20630;-87
2023/05/06 02:18:12;;;;;;;0.68;0.68;;;;;;;;;;7412492;19;20152;-86
2023/05/06 02:20:38;;;;;;;0.63;0.63;;;;;;;;;;7406788;19;20133;-87
2023/05/06 02:23:05;;;;;;;0.50;0.50;;;;;;;;;;7409040;19;20165;-87
2023/05/06 02:25:32;;;;;;;0.60;0.60;;;;;;;;;;7403995;19;20189;-86
2023/05/06 02:27:58;;;;;;;0.43;0.43;;;;;;;;;;7403106;19;20133;-86
2023/05/06 02:30:25;;;;;;;0.38;0.38;;;;;;;;;;7413468;19;20133;-85
2023/05/06 02:32:52;;;;;;;0.93;0.85;;;;;;;;;;7427261;19;20137;-85
2023/05/06 02:35:18;;;;;;;0.35;0.35;;;;;;;;;;7419961;19;20172;-83
2023/05/06 02:37:45;;;;;;;0.30;0.30;;;;;;;;;;7424007;19;20149;-85
2023/05/06 02:40:11;;;;;;;0.50;0.50;;;;;;;;;;7428137;19;20125;-85
2023/05/06 02:42:38;;;;;;;0.40;0.40;;;;;;;;;;7432127;19;20148;-85
2023/05/06 02:45:05;;;;;;;0.45;0.45;;;;;;;;;;7422774;19;20145;-85
2023/05/06 02:47:32;;;;;;;0.77;0.77;;;;;;;;;;7426996;19;20139;-85
2023/05/06 02:49:59;;;;;;;0.75;0.75;;;;;;;;;;7397407;19;20846;-86
2023/05/06 02:52:25;;;;;;;0.50;0.50;;;;;;;;;;7398914;19;20153;-84
2023/05/06 02:54:52;;;;;;;0.57;0.57;;;;;;;;;;7400084;19;20594;-86
2023/05/06 02:57:19;;;;;;;0.30;0.30;;;;;;;;;;7397884;19;20137;-85
2023/05/06 02:59:45;;;;;;;0.30;0.30;;;;;;;;;;7397876;19;20137;-86
2023/05/06 03:02:12;;;;;;;0.52;0.45;;;;;;;;;;7398786;19;20168;-85
2023/05/06 03:04:40;;;;;;;0.43;0.43;;;;;;;;;;7396631;19;20637;-85
2023/05/06 03:07:07;;;;;;;0.50;0.50;;;;;;;;;;7395281;19;20172;-86
2023/05/06 03:09:33;;;;;;;0.43;0.43;;;;;;;;;;7406853;19;20172;-85
2023/05/06 03:12:01;;;;;;;0.32;0.32;;;;;;;;;;7402620;19;20891;-86
2023/05/06 03:14:27;;;;;;;0.60;0.60;;;;;;;;;;7402216;19;20766;-86
2023/05/06 03:16:54;;;;;;;0.88;0.85;;;;;;;;;;7401484;19;20169;-86
2023/05/06 03:19:21;;;;;;;0.30;0.30;;;;;;;;;;7406688;19;20212;-86
2023/05/06 03:21:48;;;;;;;0.43;0.43;;;;;;;;;;7405489;19;20141;-86
2023/05/06 03:24:14;;;;;;;0.65;0.65;;;;;;;;;;7405052;19;20133;-86
2023/05/06 03:26:41;;;;;;;0.30;0.30;;;;;;;;;;7403955;19;20205;-86
2023/05/06 03:29:07;;;;;;;0.45;0.45;;;;;;;;;;7406941;19;20168;-86
2023/05/06 03:31:34;;;;;;;0.70;0.57;;;;;;;;;;7406217;19;20149;-86
2023/05/06 03:34:01;;;;;;;0.40;0.40;;;;;;;;;;7406152;19;20161;-85
2023/05/06 03:36:28;;;;;;;0.47;0.47;;;;;;;;;;7398662;19;20181;-85
2023/05/06 03:38:54;;;;;;;0.50;0.50;;;;;;;;;;7399230;19;20165;-85
2023/05/06 03:41:23;;;;;;;0.32;0.32;;;;;;;;;;7400401;19;20153;-85
2023/05/06 03:43:49;;;;;;;0.55;0.55;;;;;;;;;;7399015;19;20156;-85
2023/05/06 03:46:16;;;;;;;0.40;0.40;;;;;;;;;;7399509;19;20176;-85
2023/05/06 03:48:42;;;;;;;0.30;0.30;;;;;;;;;;7401156;19;20159;-85
2023/05/06 03:51:09;;;;;;;0.87;0.87;;;;;;;;;;7401695;19;20141;-85
2023/05/06 03:53:36;;;;;;;0.50;0.50;;;;;;;;;;7401910;19;20141;-85
2023/05/06 03:56:02;;;;;;;0.60;0.60;;;;;;;;;;7394696;19;20148;-86
2023/05/06 03:58:29;;;;;;;0.60;0.60;;;;;;;;;;7391632;19;20152;-86
2023/05/06 04:00:55;;;;;;;0.40;0.40;;;;;;;;;;7393969;19;20140;-87
2023/05/06 04:03:22;;;;;;;0.50;0.47;;;;;;;;;;7397319;19;20137;-85
2023/05/06 04:05:49;;;;;;;0.40;0.40;;;;;;;;;;7391799;19;20564;-85
2023/05/06 04:08:16;;;;;;;0.30;0.30;;;;;;;;;;7391556;19;20173;-85
2023/05/06 04:10:43;;;;;;;0.50;0.50;;;;;;;;;;7395316;19;20129;-84
2023/05/06 04:13:09;;;;;;;0.53;0.53;;;;;;;;;;7398260;19;20141;-85
2023/05/06 04:15:37;;;;;;;0.30;0.30;;;;;;;;;;7399286;19;20171;-86
2023/05/06 04:18:06;;;;;;;0.40;0.40;;;;;;;;;;7398631;19;20172;-85
2023/05/06 04:20:33;;;;;;;0.67;0.67;;;;;;;;;;7394561;19;20160;-85
2023/05/06 04:23:00;;;;;;;0.82;0.60;;;;;;;;;;7396197;19;20137;-85
2023/05/06 04:25:27;;;;;;;0.43;0.43;;;;;;;;;;7398651;19;20149;-85
2023/05/06 04:27:54;;;;;;;0.50;0.50;;;;;;;;;;7400707;19;20137;-85
2023/05/06 04:30:21;;;;;;;0.50;0.50;;;;;;;;;;7401060;19;20144;-85
2023/05/06 04:32:47;;;;;;;0.30;0.30;;;;;;;;;;7393296;19;20677;-85
2023/05/06 04:35:15;;;;;;;0.47;0.47;;;;;;;;;;7396103;19;20299;-86
2023/05/06 04:37:42;;;;;;;1.95;0.75;;;;;;;;;;7400058;19;20153;-85
2023/05/06 04:40:11;;;;;;;0.50;0.50;;;;;;;;;;7401989;19;20139;-85
2023/05/06 04:42:37;;;;;;;0.30;0.30;;;;;;;;;;7407548;19;20152;-87
2023/05/06 04:45:04;;;;;;;0.55;0.55;;;;;;;;;;7421005;19;20137;-87
2023/05/06 04:47:31;;;;;;;0.60;0.52;;;;;;;;;;7419095;19;20137;-87
2023/05/06 04:49:57;;;;;;;0.40;0.40;;;;;;;;;;7398426;19;20155;-86
2023/05/06 04:52:25;;;;;;;1.10;0.97;;;;;;;;;;7400046;19;20140;-86
2023/05/06 04:54:51;;;;;;;0.43;0.43;;;;;;;;;;7397457;19;20472;-86
2023/05/06 04:57:18;;;;;;;0.30;0.30;;;;;;;;;;7393144;19;20160;-87
2023/05/06 04:59:45;;;;;;;0.70;0.70;;;;;;;;;;7399891;19;20184;-86
2023/05/06 05:02:11;;;;;;;0.40;0.40;;;;;;;;;;7399357;19;20161;-87
2023/05/06 05:04:38;;;;;;;0.30;0.30;;;;;;;;;;7398265;19;20140;-86
2023/05/06 05:07:06;;;;;;;0.40;0.40;;;;;;;;;;7411472;19;20176;-87
2023/05/06 05:09:34;;;;;;;0.40;0.40;;;;;;;;;;7420369;19;20146;-88
2023/05/06 05:12:01;;;;;;;0.77;0.70;;;;;;;;;;7422563;19;20151;-87
2023/05/06 05:14:28;;;;;;;0.70;0.70;;;;;;;;;;7402507;19;20621;-87
2023/05/06 05:16:55;;;;;;;0.30;0.30;;;;;;;;;;7393104;19;20196;-87
2023/05/06 05:19:21;;;;;;;0.52;0.52;;;;;;;;;;7394857;19;20151;-87
2023/05/06 05:21:48;;;;;;;0.40;0.40;;;;;;;;;;7396162;19;20167;-86
2023/05/06 05:24:15;;;;;;;0.98;0.70;;;;;;;;;;7397124;19;20160;-86
2023/05/06 05:26:42;;;;;;;0.50;0.50;;;;;;;;;;7395500;19;20184;-87
2023/05/06 05:29:08;;;;;;;0.30;0.30;;;;;;;;;;7399739;19;20490;-87
2023/05/06 05:31:35;;;;;;;0.47;0.47;;;;;;;;;;7396984;19;20153;-87
2023/05/06 05:34:02;;;;;;;1.08;0.73;;;;;;;;;;7395254;19;20176;-87
2023/05/06 05:36:28;;;;;;;0.30;0.30;;;;;;;;;;7391532;19;20164;-87
2023/05/06 05:38:55;;;;;;;0.30;0.30;;;;;;;;;;7390380;19;20161;-86
2023/05/06 05:41:22;;;;;;;0.93;0.93;;;;;;;;;;7390371;19;20169;-86
2023/05/06 05:43:48;;;;;;;0.50;0.50;;;;;;;;;;7393780;19;20944;-87
2023/05/06 05:46:15;;;;;;;0.50;0.50;;;;;;;;;;7400634;19;20520;-87
2023/05/06 05:48:42;;;;;;;0.40;0.40;;;;;;;;;;7401215;19;20144;-86
2023/05/06 05:51:09;;;;;;;0.47;0.47;;;;;;;;;;7402922;19;20164;-86
2023/05/06 05:53:36;;;;;;;0.30;0.30;;;;;;;;;;7397129;19;20156;-87
2023/05/06 05:56:02;;;;;;;0.63;0.63;;;;;;;;;;7402148;19;20177;-86
2023/05/06 05:58:29;;;;;;;0.45;0.45;;;;;;;;;;7402933;19;20153;-86
2023/05/06 06:00:56;;;;;;;0.38;0.38;;;;;;;;;;7405173;19;20173;-86
2023/05/06 06:03:22;;;;;;;0.40;0.40;;;;;;;;;;7403507;19;20140;-86
2023/05/06 06:05:51;;;;;;;1.05;1.05;;;;;;;;;;7401683;19;20668;-86
2023/05/06 06:08:18;;;;;;;0.47;0.47;;;;;;;;;;7399341;19;20133;-86
2023/05/06 06:10:46;;;;;;;0.82;0.73;;;;;;;;;;7401272;19;20650;-86
2023/05/06 06:13:12;;;;;;;1.08;1.08;;;;;;;;;;7405709;19;20146;-86
2023/05/06 06:15:39;;;;;;;0.40;0.40;;;;;;;;;;7405187;19;20164;-86
2023/05/06 06:18:07;;;;;;;0.77;0.77;;;;;;;;;;7404822;19;20165;-86
2023/05/06 06:20:34;;;;;;;0.30;0.30;;;;;;;;;;7403074;19;20145;-86
2023/05/06 06:23:01;;;;;;;0.85;0.60;;;;;;;;;;7403752;19;20164;-86
2023/05/06 06:25:28;;;;;;;0.73;0.73;;;;;;;;;;7400690;19;20176;-86
2023/05/06 06:27:55;;;;;;;0.40;0.40;;;;;;;;;;7403737;19;20488;-86
2023/05/06 06:30:22;;;;;;;0.40;0.40;;;;;;;;;;7400733;19;20589;-86
2023/05/06 06:32:50;;;;;;;0.47;0.47;;;;;;;;;;7403659;19;20229;-86
2023/05/06 06:35:18;;;;;;;0.47;0.47;;;;;;;;;;7400062;19;20188;-86
2023/05/06 06:37:45;;;;;;;0.40;0.40;;;;;;;;;;7401226;19;20161;-86
2023/05/06 06:40:12;;;;;;;0.65;0.65;;;;;;;;;;7402457;19;20153;-86
2023/05/06 06:42:39;;;;;;;0.45;0.45;;;;;;;;;;7405296;19;20141;-86
2023/05/06 06:45:07;;;;;;;0.75;0.75;;;;;;;;;;7404879;19;20152;-86
2023/05/06 06:47:34;;;;;;;0.45;0.45;;;;;;;;;;7406914;19;20152;-86
2023/05/06 06:50:01;;;;;;;0.80;0.80;;;;;;;;;;7401401;19;20640;-86
2023/05/06 06:52:28;;;;;;;0.57;0.57;;;;;;;;;;7406317;19;20140;-86
2023/05/06 06:54:55;;;;;;;0.70;0.70;;;;;;;;;;7403122;19;20141;-86
2023/05/06 06:57:21;;;;;;;0.75;0.75;;;;;;;;;;7403805;19;20161;-86
2023/05/06 06:59:50;;;;;;;0.60;0.60;;;;;;;;;;7400605;19;20146;-86
2023/05/06 07:02:17;;;;;;;0.38;0.38;;;;;;;;;;7398421;19;20620;-86
2023/05/06 07:04:43;;;;;;;0.50;0.50;;;;;;;;;;7400269;19;20160;-88
2023/05/06 07:07:10;;;;;;;0.60;0.60;;;;;;;;;;7398303;19;20225;-86
2023/05/06 07:09:38;;;;;;;0.50;0.50;;;;;;;;;;7402959;19;20153;-86
2023/05/06 07:12:06;;;;;;;0.50;0.50;;;;;;;;;;7413096;19;20783;-89
2023/05/06 07:14:34;;;;;;;0.50;0.50;;;;;;;;;;7401237;19;20145;-86
2023/05/06 07:17:00;;;;;;;0.40;0.40;;;;;;;;;;7401514;19;20228;-87
2023/05/06 07:19:28;;;;;;;0.57;0.57;;;;;;;;;;7398652;19;20143;-87
2023/05/06 07:21:55;;;;;;;0.55;0.55;;;;;;;;;;7404352;19;20148;-86
2023/05/06 07:24:22;;;;;;;0.47;0.47;;;;;;;;;;7399977;19;20176;-86
2023/05/06 07:26:49;;;;;;;0.38;0.38;;;;;;;;;;7400903;19;20156;-87
2023/05/06 07:29:16;;;;;;;0.70;0.70;;;;;;;;;;7397254;19;20169;-88
2023/05/06 07:31:43;;;;;;;1.75;0.63;;;;;;;;;;7403247;19;20129;-87
2023/05/06 07:34:10;;;;;;;0.30;0.30;;;;;;;;;;7401980;19;20184;-87
2023/05/06 07:36:39;;;;;;;0.30;0.30;;;;;;;;;;7402936;19;20153;-87
2023/05/06 07:39:07;;;;;;;0.40;0.40;;;;;;;;;;7399978;19;20129;-87
2023/05/06 07:41:34;;;;;;;0.30;0.30;;;;;;;;;;7402141;19;20696;-87
2023/05/06 07:44:04;;;;;;;0.45;0.45;;;;;;;;;;7399503;19;20137;-87
2023/05/06 07:46:35;;;;;;;0.30;0.30;;;;;;;;;;7391566;19;20648;-87
2023/05/06 07:49:02;;;;;;;0.50;0.50;;;;;;;;;;7399349;19;20597;-87
2023/05/06 07:52:10;;;;;;;0.40;0.40;;;;;;;;;;7397587;19;20149;-87
2023/05/06 07:54:45;;;;;;;0.40;0.40;;;;;;;;;;7398043;19;20137;-87
2023/05/06 07:57:15;;;;;;;0.30;0.30;;;;;;;;;;7401630;19;20204;-87
2023/05/06 08:00:05;;;;;;;0.55;0.55;;;;;;;;;;7402831;19;20140;-88
2023/05/06 08:02:42;;;;;;;0.35;0.35;;;;;;;;;;7399825;19;20200;-88
2023/05/06 08:05:18;;;;;;;0.60;0.60;;;;;;;;;;7399768;19;20271;-87
2023/05/06 08:07:45;;;;;;;0.35;0.35;;;;;;;;;;7397486;19;20610;-87
2023/05/06 08:10:12;;;;;;;0.30;0.30;;;;;;;;;;7404137;19;20140;-89
2023/05/06 08:13:04;;;;;;;0.60;0.60;;;;;;;;;;7393006;19;20196;-88
2023/05/06 08:15:31;;;;;;;0.52;0.52;;;;;;;;;;7394551;19;20585;-88
2023/05/06 08:17:58;;;;;;;0.40;0.40;;;;;;;;;;7391504;19;20170;-88
2023/05/06 08:24:09;;;;;;;0.57;0.57;;;;;;;;;;7399952;19;20133;-90
2023/05/06 08:26:36;;;;;;;0.57;0.57;;;;;;;;;;7397531;19;20176;-90
2023/05/06 08:29:02;;;;;;;0.57;0.57;;;;;;;;;;7397688;19;20148;-89
2023/05/06 08:31:29;;;;;;;0.40;0.40;;;;;;;;;;7399946;19;20133;-89
2023/05/06 08:33:56;;;;;;;0.45;0.45;;;;;;;;;;7400050;19;20461;-88
2023/05/06 08:36:22;;;;;;;0.30;0.30;;;;;;;;;;7398976;19;20141;-89
2023/05/06 08:38:50;;;;;;;0.45;0.45;;;;;;;;;;7405274;19;20157;-89
2023/05/06 08:41:18;;;;;;;0.60;0.60;;;;;;;;;;7399201;19;20144;-89
2023/05/06 08:43:45;;;;;;;0.40;0.40;;;;;;;;;;7402006;19;20200;-89
2023/05/06 08:46:12;;;;;;;0.47;0.47;;;;;;;;;;7402062;19;20180;-90
2023/05/06 08:48:48;;;;;;;0.40;0.40;;;;;;;;;;7402432;19;20144;-90
2023/05/06 08:51:15;;;;;;;0.32;0.32;;;;;;;;;;7399449;19;20145;-89
2023/05/06 08:53:47;;;;;;;0.50;0.50;;;;;;;;;;7403712;19;20165;-89
2023/05/06 08:56:14;;;;;;;1.05;0.57;;;;;;;;;;7399868;19;20141;-88
2023/05/06 08:58:43;;;;;;;0.30;0.30;;;;;;;;;;7400322;19;20169;-90
2023/05/06 09:01:11;;;;;;;0.50;0.50;;;;;;;;;;7399199;19;20148;-88
2023/05/06 09:03:37;;;;;;;0.40;0.40;;;;;;;;;;7401965;19;20509;-89
2023/05/06 09:06:04;;;;;;;0.80;0.80;;;;;;;;;;7402717;19;20164;-88
2023/05/06 09:56:20;;;;;;;0.50;0.50;;;;;;;;;;7377943;19;20521;-91
2023/05/06 09:58:47;;;;;;;0.30;0.30;;;;;;;;;;7388666;19;20160;-90
2023/05/06 10:01:17;;;;;;;0.30;0.30;;;;;;;;;;7386104;19;20160;-91
2023/05/06 10:04:03;;;;;;;0.38;0.38;;;;;;;;;;7386685;19;20129;-93
2023/05/06 10:06:31;;;;;;;0.60;0.60;;;;;;;;;;7394762;19;20169;-91
2023/05/06 10:08:58;;;;;;;0.32;0.32;;;;;;;;;;7387397;19;20141;-90
2023/05/06 10:11:46;;;;;;;1.05;0.95;;;;;;;;;;7395699;19;20161;-92
2023/05/06 10:14:17;;;;;;;0.70;0.70;;;;;;;;;;7403945;19;20168;-88
2023/05/06 10:16:48;;;;;;;0.68;0.68;;;;;;;;;;7401045;19;20193;-88
2023/05/06 10:19:19;;;;;;;1.05;0.98;;;;;;;;;;7394842;19;20141;-89
2023/05/06 10:21:56;;;;;;;0.63;0.63;;;;;;;;;;7393363;19;20145;-90
2023/05/06 10:27:31;;;;;;;0.30;0.30;;;;;;;;;;7393081;19;20170;-89
2023/05/06 10:30:05;;;;;;;0.52;0.52;;;;;;;;;;7397469;19;20148;-86
2023/05/06 10:32:31;;;;;;;0.75;0.75;;;;;;;;;;7385844;19;20133;-87
2023/05/06 10:35:05;;;;;;;1.75;0.93;;;;;;;;;;7389881;19;20140;-85
2023/05/06 10:37:32;;;;;;;0.60;0.60;;;;;;;;;;7386424;19;20147;-86
2023/05/06 10:39:59;;;;;;;0.30;0.30;;;;;;;;;;7394846;19;20156;-86
2023/05/06 10:42:27;;;;;;;0.52;0.52;;;;;;;;;;7396637;19;20180;-87
2023/05/06 10:45:02;;;;;;;0.75;0.60;;;;;;;;;;7388035;19;20145;-88
2023/05/06 10:47:51;;;;;;;0.30;0.30;;;;;;;;;;7387917;19;20484;-88
2023/05/06 10:50:22;;;;;;;0.57;0.57;;;;;;;;;;7392674;19;20171;-87
2023/05/06 10:52:57;;;;;;;0.45;0.45;;;;;;;;;;7395112;19;20160;-88
2023/05/06 10:55:25;;;;;;;0.50;0.50;;;;;;;;;;7396698;19;20247;-88
2023/05/06 10:58:01;;;;;;;0.32;0.32;;;;;;;;;;7395433;19;20141;-88
2023/05/06 11:00:33;;;;;;;0.30;0.30;;;;;;;;;;7392026;19;20211;-87
2023/05/06 11:03:12;;;;;;;0.55;0.55;;;;;;;;;;7395402;19;20141;-89
2023/05/06 11:05:50;;;;;;;0.30;0.30;;;;;;;;;;7393895;19;20164;-89
2023/05/06 11:08:21;;;;;;;0.82;0.82;;;;;;;;;;7394183;19;20502;-88
2023/05/06 11:10:48;;;;;;;0.30;0.30;;;;;;;;;;7395690;19;20133;-89
2023/05/06 11:13:27;;;;;;;0.47;0.47;;;;;;;;;;7396576;19;20125;-89
2023/05/06 11:15:55;;;;;;;0.55;0.55;;;;;;;;;;7393804;19;20231;-89
2023/05/06 11:18:32;;;;;;;0.40;0.40;;;;;;;;;;7393097;19;20153;-88
2023/05/06 11:21:01;;;;;;;0.50;0.50;;;;;;;;;;7393047;19;20137;-88
2023/05/06 11:23:40;;;;;;;0.57;0.57;;;;;;;;;;7390348;19;20161;-89
2023/05/06 11:26:08;;;;;;;0.50;0.50;;;;;;;;;;7399498;19;20172;-91
2023/05/06 11:28:42;;;;;;;0.40;0.40;;;;;;;;;;7397002;19;20573;-89
2023/05/06 11:34:55;;;;;;;0.40;0.40;;;;;;;;;;7398687;19;20233;-89
2023/05/06 11:37:28;;;;;;;0.40;0.40;;;;;;;;;;7404050;19;20561;-89
2023/05/06 11:39:55;;;;;;;0.40;0.40;;;;;;;;;;7409084;19;20155;-89
2023/05/06 11:42:28;;;;;;;0.43;0.43;;;;;;;;;;7407803;19;20245;-88
2023/05/06 11:44:55;;;;;;;0.30;0.30;;;;;;;;;;7398562;19;20156;-88
2023/05/06 11:47:22;;;;;;;0.40;0.40;;;;;;;;;;7396882;19;20172;-89
2023/05/06 11:49:55;;;;;;;0.43;0.43;;;;;;;;;;7396253;19;20149;-87
2023/05/06 11:52:23;;;;;;;7.97;0.95;;;;;;;;;;7398762;19;20145;-90
2023/05/06 11:54:52;;;;;;;0.30;0.30;;;;;;;;;;7395298;19;20526;-87
2023/05/06 11:57:20;;;;;;;0.40;0.40;;;;;;;;;;7394539;19;20613;-89
2023/05/06 11:59:52;;;;;;;0.30;0.30;;;;;;;;;;7398994;19;20129;-87
2023/05/06 12:02:20;;;;;;;0.70;0.50;;;;;;;;;;7397606;19;20137;-88
2023/05/06 12:04:48;;;;;;;0.40;0.40;;;;;;;;;;7399533;19;20138;-89
2023/05/06 12:07:15;;;;;;;0.50;0.50;;;;;;;;;;7399120;19;20161;-88
2023/05/06 12:09:44;;;;;;;0.40;0.40;;;;;;;;;;7400783;19;20149;-88
2023/05/06 12:12:11;;;;;;;0.40;0.40;;;;;;;;;;7401075;19;20141;-89
2023/05/06 12:14:38;;;;;;;0.30;0.30;;;;;;;;;;7401010;19;20527;-88
2023/05/06 12:17:05;;;;;;;0.30;0.30;;;;;;;;;;7400409;19;20192;-89
2023/05/06 12:19:32;;;;;;;0.40;0.40;;;;;;;;;;7400356;19;20137;-89
2023/05/06 12:22:19;;;;;;;0.55;0.55;;;;;;;;;;7400811;19;20625;-89
2023/05/06 12:24:46;;;;;;;0.30;0.30;;;;;;;;;;7401119;19;20161;-89
2023/05/06 12:27:14;;;;;;;0.35;0.35;;;;;;;;;;7401905;19;20153;-88
2023/05/06 12:29:51;;;;;;;0.50;0.50;;;;;;;;;;7402293;19;20137;-88
2023/05/06 12:32:18;;;;;;;0.68;0.43;;;;;;;;;;7402368;19;20144;-88
2023/05/06 12:34:44;;;;;;;0.45;0.45;;;;;;;;;;7400978;19;20129;-87
2023/05/06 12:37:23;;;;;;;0.32;0.32;;;;;;;;;;7396631;19;20177;-88
2023/05/06 12:39:49;;;;;;;0.40;0.40;;;;;;;;;;7397076;19;20164;-87
2023/05/06 12:42:20;;;;;;;0.32;0.32;;;;;;;;;;7397504;19;20136;-89
2023/05/06 12:44:47;;;;;;;0.30;0.30;;;;;;;;;;7397808;19;20134;-88
2023/05/06 12:47:21;;;;;;;0.40;0.40;;;;;;;;;;7396231;19;20173;-89
2023/05/06 12:49:53;;;;;;;0.88;0.88;;;;;;;;;;7396900;19;20200;-89
2023/05/06 12:52:24;;;;;;;0.30;0.30;;;;;;;;;;7400770;19;20143;-88
2023/05/06 12:54:51;;;;;;;0.47;0.47;;;;;;;;;;7397754;19;20168;-89
2023/05/06 12:57:18;;;;;;;0.40;0.40;;;;;;;;;;7401142;19;20148;-89
2023/05/06 12:59:45;;;;;;;0.65;0.65;;;;;;;;;;7403415;19;20193;-89
2023/05/06 13:02:12;;;;;;;0.50;0.50;;;;;;;;;;7402332;19;20152;-88
2023/05/06 13:04:39;;;;;;;0.70;0.70;;;;;;;;;;7399431;19;20544;-90
2023/05/06 13:07:06;;;;;;;0.40;0.40;;;;;;;;;;7398054;19;20153;-88
2023/05/06 13:09:33;;;;;;;0.40;0.40;;;;;;;;;;7423146;19;20129;-87
2023/05/06 13:12:00;;;;;;;0.63;0.63;;;;;;;;;;7425887;19;20145;-86
2023/05/06 13:14:26;;;;;;;0.60;0.60;;;;;;;;;;7428104;19;20148;-86
2023/05/06 13:16:53;;;;;;;1.83;0.57;;;;;;;;;;7425038;19;20157;-86
2023/05/06 13:19:20;;;;;;;0.55;0.55;;;;;;;;;;7427018;19;20176;-86
2023/05/06 13:21:58;;;;;;;0.50;0.50;;;;;;;;;;7427724;19;20140;-89
2023/05/06 13:24:26;;;;;;;0.50;0.50;;;;;;;;;;7423562;19;20163;-89
2023/05/06 13:26:52;;;;;;;0.40;0.40;;;;;;;;;;7402944;19;20633;-88
2023/05/06 13:29:19;;;;;;;0.70;0.70;;;;;;;;;;7402237;19;20145;-88
2023/05/06 13:31:46;;;;;;;0.30;0.30;;;;;;;;;;7406039;19;20152;-89
2023/05/06 13:34:12;;;;;;;0.40;0.40;;;;;;;;;;7400750;19;20140;-88
2023/05/06 13:36:39;;;;;;;0.57;0.57;;;;;;;;;;7395953;19;20153;-89
2023/05/06 13:39:05;;;;;;;0.40;0.40;;;;;;;;;;7397426;19;20156;-88
2023/05/06 13:41:33;;;;;;;0.52;0.52;;;;;;;;;;7398143;19;20148;-88
2023/05/06 13:43:59;;;;;;;0.55;0.55;;;;;;;;;;7394822;19;20172;-89
2023/05/06 13:46:26;;;;;;;0.30;0.30;;;;;;;;;;7396636;19;20164;-89
2023/05/06 13:48:54;;;;;;;0.70;0.70;;;;;;;;;;7396490;19;20253;-89
2023/05/06 13:51:20;;;;;;;0.40;0.40;;;;;;;;;;7397497;19;20145;-88
2023/05/06 13:53:47;;;;;;;1.40;0.70;;;;;;;;;;7397713;19;20161;-89
2023/05/06 13:56:14;;;;;;;0.40;0.40;;;;;;;;;;7395911;19;20173;-90
2023/05/06 13:58:40;;;;;;;0.30;0.30;;;;;;;;;;7397133;19;20136;-89
2023/05/06 14:01:07;;;;;;;0.45;0.45;;;;;;;;;;7397283;19;20137;-90
2023/05/06 14:03:33;;;;;;;0.40;0.40;;;;;;;;;;7396714;19;20479;-89
2023/05/06 14:06:00;;;;;;;0.50;0.50;;;;;;;;;;7402026;19;20184;-90
2023/05/06 14:08:27;;;;;;;0.50;0.50;;;;;;;;;;7411947;19;20169;-89
2023/05/06 14:10:53;;;;;;;0.40;0.40;;;;;;;;;;7418134;19;20608;-90
2023/05/06 14:13:20;;;;;;;0.40;0.40;;;;;;;;;;7404811;19;20129;-89
2023/05/06 14:15:47;;;;;;;0.50;0.50;;;;;;;;;;7402212;19;20157;-89
2023/05/06 14:18:13;;;;;;;0.47;0.47;;;;;;;;;;7403396;19;20139;-88
2023/05/06 14:20:40;;;;;;;0.60;0.60;;;;;;;;;;7403895;19;20144;-89
2023/05/06 14:23:07;;;;;;;1.02;0.93;;;;;;;;;;7401106;19;20523;-89
2023/05/06 14:25:33;;;;;;;0.50;0.50;;;;;;;;;;7403056;19;20176;-89
2023/05/06 14:28:00;;;;;;;0.40;0.40;;;;;;;;;;7403315;19;20137;-89
2023/05/06 14:30:31;;;;;;;0.60;0.60;;;;;;;;;;7399042;19;20157;-89
2023/05/06 14:32:57;;;;;;;0.65;0.65;;;;;;;;;;7403655;19;20137;-89
2023/05/06 14:35:24;;;;;;;0.30;0.30;;;;;;;;;;7402072;19;20499;-88
2023/05/06 14:37:51;;;;;;;0.47;0.47;;;;;;;;;;7402592;19;20165;-88
2023/05/06 14:40:18;;;;;;;0.50;0.50;;;;;;;;;;7402055;19;20547;-88
2023/05/06 14:42:45;;;;;;;0.82;0.70;;;;;;;;;;7400299;19;20133;-89
2023/05/06 14:45:12;;;;;;;0.65;0.65;;;;;;;;;;7399758;19;20617;-89
2023/05/06 14:47:39;;;;;;;0.60;0.60;;;;;;;;;;7401830;19;20389;-88
